createdAt,value
2023-01-22T00:02:02.081Z,98930.31
2023-01-22T00:07:06.674Z,98926.66
2023-01-22T00:12:11.649Z,98930.25
2023-01-22T00:17:17.880Z,98926.75
2023-01-22T00:22:22.562Z,98934.72
2023-01-22T00:27:26.899Z,98948.47
2023-01-22T00:32:32.833Z,98947.66
2023-01-22T00:37:37.570Z,98949.28
2023-01-22T00:42:42.880Z,98955.59
2023-01-22T00:47:49.324Z,98961.84
2023-01-22T00:52:53.742Z,98957.53
2023-01-22T00:57:58.026Z,98962.94
2023-01-22T01:03:21.294Z,98980.16
2023-01-22T01:08:26.904Z,98985.34
2023-01-22T01:13:34.571Z,98986.28
2023-01-22T01:18:41.787Z,98991.31
2023-01-22T01:23:46.709Z,98996.28
2023-01-22T01:28:52.505Z,99003.06
2023-01-22T01:33:59.152Z,98997.28
2023-01-22T01:39:05.330Z,98996.47
2023-01-22T01:44:16.156Z,99003.50
2023-01-22T01:49:29.951Z,99002.25
2023-01-22T01:54:35.357Z,99015.81
2023-01-22T01:59:40.883Z,99000.94
2023-01-22T02:04:46.937Z,99006.06
2023-01-22T02:09:51.668Z,99012.50
2023-01-22T02:14:56.645Z,99002.06
2023-01-22T02:20:02.396Z,99009.28
2023-01-22T02:25:09.874Z,99000.22
2023-01-22T02:30:16.654Z,98995.34
2023-01-22T02:35:21.328Z,98999.38
2023-01-22T02:40:29.904Z,99005.25
2023-01-22T02:45:35.966Z,99013.66
2023-01-22T02:50:40.656Z,99025.13
2023-01-22T02:55:47.130Z,99043.75
2023-01-22T03:00:52.138Z,99038.88
2023-01-22T03:05:56.815Z,99040.09
2023-01-22T03:11:02.470Z,99044.81
2023-01-22T03:16:25.390Z,99044.19
2023-01-22T03:21:30.328Z,99035.84
2023-01-22T03:26:37.624Z,99036.38
2023-01-22T03:31:42.058Z,99029.59
2023-01-22T03:36:47.708Z,99027.41
2023-01-22T03:41:54.236Z,99034.28
2023-01-22T03:46:59.456Z,99030.25
2023-01-22T03:52:05.158Z,99030.25
2023-01-22T03:57:11.278Z,99032.38
2023-01-22T04:02:18.094Z,99040.69
2023-01-22T04:07:40.175Z,99029.22
2023-01-22T04:12:46.079Z,99033.59
2023-01-22T04:17:52.912Z,99045.25
2023-01-22T04:23:18.695Z,99040.69
2023-01-22T04:28:24.594Z,99060.66
2023-01-22T04:33:31.963Z,99058.56
2023-01-22T04:38:46.957Z,99058.72
2023-01-22T04:43:53.161Z,99064.19
2023-01-22T04:48:59.707Z,99058.56
2023-01-22T04:54:04.573Z,99066.91
2023-01-22T04:59:11.546Z,99068.63
2023-01-22T05:04:16.707Z,99079.38
2023-01-22T05:09:21.218Z,99073.59
2023-01-22T05:14:32.439Z,99087.66
2023-01-22T05:19:38.936Z,99080.63
2023-01-22T05:24:48.623Z,99081.94
2023-01-22T05:29:54.555Z,99086.50
2023-01-22T05:35:13.960Z,99090.97
2023-01-22T05:40:19.257Z,99077.41
2023-01-22T05:45:25.951Z,99088.75
2023-01-22T05:50:56.685Z,99098.84
2023-01-22T05:56:02.754Z,99095.03
2023-01-22T06:01:13.538Z,99107.88
2023-01-22T06:06:22.582Z,99113.25
2023-01-22T06:11:27.685Z,99113.06
2023-01-22T06:16:33.346Z,99111.84
2023-01-22T06:21:45.818Z,99119.44
2023-01-22T06:26:50.858Z,99127.31
2023-01-22T06:31:59.375Z,99120.28
2023-01-22T06:37:04.223Z,99125.00
2023-01-22T06:42:11.675Z,99122.28
2023-01-22T06:47:17.465Z,99142.09
2023-01-22T06:52:22.465Z,99146.72
2023-01-22T06:57:26.837Z,99160.78
2023-01-22T07:02:32.652Z,99165.25
2023-01-22T07:07:37.007Z,99179.31
2023-01-22T07:12:41.628Z,99190.06
2023-01-22T07:17:51.107Z,99194.19
2023-01-22T07:23:00.159Z,99201.31
2023-01-22T07:28:07.060Z,99202.06
2023-01-22T07:33:13.710Z,99195.69
2023-01-22T07:38:17.917Z,99204.44
2023-01-22T07:43:22.643Z,99213.72
2023-01-22T07:48:29.020Z,99205.50
2023-01-22T07:53:34.421Z,99211.16
2023-01-22T07:58:41.356Z,99207.00
2023-01-22T08:03:47.411Z,99208.59
2023-01-22T08:08:52.139Z,99208.06
2023-01-22T08:13:56.422Z,99203.88
2023-01-22T08:19:02.049Z,99197.97
2023-01-22T08:24:08.348Z,99207.53
2023-01-22T08:29:12.924Z,99223.47
2023-01-22T08:34:19.310Z,99218.56
2023-01-22T08:39:23.795Z,99232.22
2023-01-22T08:44:28.358Z,99227.31
2023-01-22T08:49:34.098Z,99231.94
2023-01-22T08:54:38.719Z,99227.94
2023-01-22T08:59:52.587Z,99228.41
2023-01-22T09:05:06.956Z,99228.50
2023-01-22T09:10:13.050Z,99247.56
2023-01-22T09:15:17.701Z,99252.50
2023-01-22T09:20:23.756Z,99255.16
2023-01-22T09:25:29.258Z,99253.94
2023-01-22T09:30:33.639Z,99246.53
2023-01-22T09:35:39.757Z,99236.63
2023-01-22T09:40:48.508Z,99232.03
2023-01-22T09:45:56.288Z,99237.38
2023-01-22T09:51:02.973Z,99244.97
2023-01-22T09:56:15.543Z,99234.03
2023-01-22T10:01:20.968Z,99232.91
2023-01-22T10:06:28.380Z,99237.69
2023-01-22T10:11:32.842Z,99231.16
2023-01-22T10:16:38.317Z,99225.94
2023-01-22T10:21:46.594Z,99217.69
2023-01-22T10:26:54.663Z,99222.28
2023-01-22T10:32:01.796Z,99227.00
2023-01-22T10:37:17.750Z,99216.81
2023-01-22T10:42:24.629Z,99210.94
2023-01-22T10:47:29.467Z,99220.59
2023-01-22T10:52:40.051Z,99217.41
2023-01-22T10:57:49.963Z,99218.66
2023-01-22T11:02:54.527Z,99231.63
2023-01-22T11:08:12.433Z,99215.38
2023-01-22T11:13:21.680Z,99225.81
2023-01-22T11:18:36.374Z,99229.22
2023-01-22T11:23:52.412Z,99221.44
2023-01-22T11:29:09.840Z,99220.31
2023-01-22T11:34:50.484Z,99217.66
2023-01-22T11:40:18.289Z,99219.31
2023-01-22T11:45:48.260Z,99213.16
2023-01-22T11:51:01.074Z,99207.84
2023-01-22T11:56:30.526Z,99210.69
2023-01-22T12:02:03.692Z,99209.94
2023-01-22T12:08:03.623Z,99211.44
2023-01-22T12:13:26.767Z,99209.31
2023-01-22T12:19:08.217Z,99208.31
2023-01-22T12:24:23.093Z,99207.56
2023-01-22T12:29:35.011Z,99196.81
2023-01-22T12:34:48.324Z,99209.75
2023-01-22T12:40:17.585Z,99214.09
2023-01-22T12:45:30.455Z,99219.38
2023-01-22T12:50:35.011Z,99209.28
2023-01-22T12:55:43.920Z,99224.63
2023-01-22T13:01:04.022Z,99230.50
2023-01-22T13:06:22.776Z,99245.28
2023-01-22T13:11:34.216Z,99246.22
2023-01-22T13:16:41.657Z,99250.22
2023-01-22T13:21:47.022Z,99246.56
2023-01-22T13:26:55.415Z,99255.13
2023-01-22T13:32:03.655Z,99263.53
2023-01-22T13:37:19.313Z,99268.97
2023-01-22T13:42:24.758Z,99264.84
2023-01-22T13:47:34.271Z,99269.16
2023-01-22T13:52:38.801Z,99269.44
2023-01-22T13:57:46.607Z,99270.25
2023-01-22T14:02:53.047Z,99277.03
2023-01-22T14:08:07.261Z,99282.94
2023-01-22T14:13:15.538Z,99284.66
2023-01-22T14:18:21.744Z,99297.31
2023-01-22T14:23:26.517Z,99307.44
2023-01-22T14:28:32.301Z,99312.00
2023-01-22T14:33:37.871Z,99315.50
2023-01-22T14:38:42.529Z,99328.63
2023-01-22T14:43:47.269Z,99324.22
2023-01-22T14:48:53.208Z,99327.78
2023-01-22T14:53:58.867Z,99333.75
2023-01-22T14:59:04.595Z,99339.91
2023-01-22T15:04:10.940Z,99341.66
2023-01-22T15:09:15.383Z,99348.44
2023-01-22T15:14:19.928Z,99355.50
2023-01-22T15:19:26.077Z,99355.41
2023-01-22T15:24:30.638Z,99368.59
2023-01-22T15:29:34.940Z,99368.44
2023-01-22T15:34:40.901Z,99357.97
2023-01-22T15:39:45.126Z,99368.50
2023-01-22T15:44:49.585Z,99374.22
2023-01-22T15:49:55.308Z,99382.78
2023-01-22T15:55:00.300Z,99401.38
2023-01-22T16:00:07.036Z,99399.75
2023-01-22T16:05:20.266Z,99402.41
2023-01-22T16:10:24.544Z,99414.50
2023-01-22T16:15:29.041Z,99412.94
2023-01-22T16:20:34.595Z,99419.72
2023-01-22T16:25:41.518Z,99429.13
2023-01-22T16:30:46.005Z,99433.81
2023-01-22T16:35:58.929Z,99429.84
2023-01-22T16:41:28.695Z,99431.78
2023-01-22T16:46:35.211Z,99436.97
2023-01-22T16:51:44.200Z,99448.09
2023-01-22T16:56:49.642Z,99440.56
2023-01-22T17:01:55.098Z,99452.16
2023-01-22T17:07:01.709Z,99461.88
2023-01-22T17:12:08.471Z,99460.84
2023-01-22T17:17:13.321Z,99461.69
2023-01-22T17:22:19.283Z,99471.13
2023-01-22T17:27:26.025Z,99468.47
2023-01-22T17:32:30.833Z,99481.31
2023-01-22T17:37:36.720Z,99488.94
2023-01-22T17:42:41.355Z,99502.63
2023-01-22T17:47:46.396Z,99508.69
2023-01-22T17:52:52.513Z,99501.78
2023-01-22T17:57:59.294Z,99512.81
2023-01-22T18:03:03.677Z,99507.28
2023-01-22T18:08:09.681Z,99512.91
2023-01-22T18:13:14.360Z,99533.88
2023-01-22T18:18:19.095Z,99527.41
2023-01-22T18:23:24.926Z,99527.56
2023-01-22T18:28:29.929Z,99537.69
2023-01-22T18:33:36.020Z,99542.34
2023-01-22T18:38:42.419Z,99538.03
2023-01-22T18:43:50.872Z,99538.88
2023-01-22T18:48:59.717Z,99551.47
2023-01-22T18:54:06.523Z,99565.88
2023-01-22T18:59:12.937Z,99565.75
2023-01-22T19:04:20.740Z,99566.53
2023-01-22T19:09:27.837Z,99569.38
2023-01-22T19:14:32.819Z,99579.31
2023-01-22T19:19:37.293Z,99577.66
2023-01-22T19:24:43.788Z,99575.84
2023-01-22T19:29:49.075Z,99587.38
2023-01-22T19:34:53.510Z,99599.28
2023-01-22T19:40:00.154Z,99597.47
2023-01-22T19:45:04.774Z,99599.88
2023-01-22T19:50:12.390Z,99603.44
2023-01-22T19:55:20.216Z,99607.59
2023-01-22T20:00:24.754Z,99616.31
2023-01-22T20:05:28.992Z,99618.38
2023-01-22T20:10:37.431Z,99614.97
2023-01-22T20:15:43.780Z,99621.44
2023-01-22T20:20:54.320Z,99624.34
2023-01-22T20:26:02.109Z,99631.56
2023-01-22T20:31:12.231Z,99630.47
2023-01-22T20:36:17.675Z,99629.69
2023-01-22T20:41:27.474Z,99635.50
2023-01-22T20:46:32.219Z,99635.75
2023-01-22T20:51:36.804Z,99634.94
2023-01-22T20:56:42.807Z,99636.00
2023-01-22T21:01:47.893Z,99635.34
2023-01-22T21:06:52.573Z,99641.22
2023-01-22T21:11:58.429Z,99647.94
2023-01-22T21:17:02.959Z,99659.13
2023-01-22T21:22:07.717Z,99659.91
2023-01-22T21:27:13.478Z,99659.13
2023-01-22T21:32:19.201Z,99651.28
2023-01-22T21:37:23.900Z,99652.31
2023-01-22T21:42:47.724Z,99656.81
2023-01-22T21:47:52.671Z,99670.38
2023-01-22T21:52:57.314Z,99667.09
2023-01-22T21:58:03.350Z,99664.66
2023-01-22T22:03:07.752Z,99677.50
2023-01-22T22:08:12.549Z,99676.69
2023-01-22T22:13:19.525Z,99685.16
2023-01-22T22:18:24.216Z,99691.88
2023-01-22T22:23:29.443Z,99702.16
2023-01-22T22:28:36.569Z,99694.50
2023-01-22T22:33:41.934Z,99705.47
2023-01-22T22:38:46.746Z,99712.34
2023-01-22T22:43:54.407Z,99720.72
2023-01-22T22:49:01.363Z,99709.44
2023-01-22T22:54:08.757Z,99716.44
2023-01-22T22:59:16.474Z,99728.34
2023-01-22T23:04:21.069Z,99743.38
2023-01-22T23:09:25.905Z,99755.94
2023-01-22T23:14:32.150Z,99763.34
2023-01-22T23:19:36.649Z,99751.78
2023-01-22T23:24:41.174Z,99734.63
2023-01-22T23:29:46.814Z,99762.13
2023-01-22T23:34:51.178Z,99746.78
2023-01-22T23:39:55.784Z,99748.16
2023-01-22T23:45:01.422Z,99744.28
2023-01-22T23:50:07.183Z,99749.59
2023-01-22T23:55:12.484Z,99754.97
